Observation data for Brownfield on 07/10/2018      Previous  Date  Next       Current Mesonet Observations  Soil Data  Daily Summary Page  Observations in Plain Language
KBWS 100500Z 00000KT 23/17 A3025 RMK A01 T02270170  RH  072%=      5-min Rain = 0
KBWS 100505Z 00000KT 23/17 A3025 RMK A01 T02260170  RH  072%=      5-min Rain = 0
KBWS 100510Z 19001KT 22/17 A3025 RMK A01 T02240170  RH  073%=      5-min Rain = 0
KBWS 100515Z 00000KT 22/17 A3025 RMK A01 T02230168  RH  073%=      5-min Rain = 0
KBWS 100520Z 00000KT 22/17 A3025 RMK A01 T02230168  RH  073%=      5-min Rain = 0
KBWS 100525Z 00000KT 22/17 A3025 RMK A01 T02220170  RH  074%=      5-min Rain = 0
KBWS 100530Z 00000KT 22/17 A3025 RMK A01 T02220169  RH  074%=      5-min Rain = 0
KBWS 100535Z 00000KT 22/17 A3025 RMK A01 T02220169  RH  074%=      5-min Rain = 0
KBWS 100540Z 00000KT 22/17 A3025 RMK A01 T02220169  RH  074%=      5-min Rain = 0
KBWS 100545Z 00000KT 22/17 A3025 RMK A01 T02210169  RH  074%=      5-min Rain = 0
KBWS 100550Z 00000KT 22/17 A3025 RMK A01 T02200169  RH  075%=      5-min Rain = 0
KBWS 100555Z 05000KT 22/17 A3025 RMK A01 T02200170  RH  075%=      5-min Rain = 0
KBWS 100600Z 07000KT 22/17 A3025 RMK A01 T02200173  RH  076%=      5-min Rain = 0
KBWS 100605Z 00000KT 22/17 A3025 RMK A01 T02190173  RH  077%=      5-min Rain = 0
KBWS 100610Z 00000KT 22/17 A3025 RMK A01 T02180172  RH  077%=      5-min Rain = 0
KBWS 100615Z 00000KT 22/17 A3025 RMK A01 T02160171  RH  078%=      5-min Rain = 0
KBWS 100620Z 00000KT 21/17 A3025 RMK A01 T02140171  RH  079%=      5-min Rain = 0
KBWS 100625Z 00000KT 21/17 A3025 RMK A01 T02130171  RH  079%=      5-min Rain = 0
KBWS 100630Z 00000KT 21/17 A3025 RMK A01 T02130172  RH  079%=      5-min Rain = 0
KBWS 100635Z 00000KT 21/17 A3025 RMK A01 T02120171  RH  079%=      5-min Rain = 0
KBWS 100640Z 18000KT 21/17 A3025 RMK A01 T02130171  RH  079%=      5-min Rain = 0
KBWS 100645Z 19002KT 21/17 A3026 RMK A01 T02140171  RH  078%=      5-min Rain = 0
KBWS 100650Z 20002KT 21/17 A3026 RMK A01 T02140171  RH  078%=      5-min Rain = 0
KBWS 100655Z 19003KT 21/17 A3026 RMK A01 T02130170  RH  078%=      5-min Rain = 0
KBWS 100700Z 18004KT 21/17 A3026 RMK A01 T02110168  RH  078%=      5-min Rain = 0
KBWS 100705Z 18003KT 21/17 A3026 RMK A01 T02090168  RH  079%=      5-min Rain = 0
KBWS 100710Z 17002KT 21/17 A3026 RMK A01 T02070167  RH  080%=      5-min Rain = 0
KBWS 100715Z 16003KT 21/17 A3026 RMK A01 T02060167  RH  080%=      5-min Rain = 0
KBWS 100720Z 16004KT 21/17 A3026 RMK A01 T02050168  RH  081%=      5-min Rain = 0
KBWS 100725Z 17005KT 21/17 A3025 RMK A01 T02050168  RH  081%=      5-min Rain = 0
KBWS 100730Z 17005KT 21/17 A3025 RMK A01 T02050168  RH  081%=      5-min Rain = 0
KBWS 100735Z 17004KT 21/17 A3025 RMK A01 T02050168  RH  081%=      5-min Rain = 0
KBWS 100740Z 16005KT 20/17 A3025 RMK A01 T02030166  RH  082%=      5-min Rain = 0
KBWS 100745Z 17005KT 20/17 A3025 RMK A01 T02010165  RH  082%=      5-min Rain = 0
KBWS 100750Z 16005KT 20/17 A3025 RMK A01 T02000166  RH  082%=      5-min Rain = 0
KBWS 100755Z 15004KT 20/17 A3025 RMK A01 T02000167  RH  083%=      5-min Rain = 0
KBWS 100800Z 15005KT 20/17 A3025 RMK A01 T01990167  RH  084%=      5-min Rain = 0
KBWS 100805Z 15005KT 20/17 A3025 RMK A01 T01990167  RH  084%=      5-min Rain = 0
KBWS 100810Z 15004KT 20/17 A3025 RMK A01 T01990168  RH  084%=      5-min Rain = 0
KBWS 100815Z 15003KT 20/17 A3025 RMK A01 T01990168  RH  084%=      5-min Rain = 0
KBWS 100820Z 15003KT 20/17 A3025 RMK A01 T01990167  RH  084%=      5-min Rain = 0
KBWS 100825Z 14003KT 20/17 A3025 RMK A01 T01990168  RH  084%=      5-min Rain = 0
KBWS 100830Z 14002KT 20/17 A3025 RMK A01 T01990168  RH  084%=      5-min Rain = 0
KBWS 100835Z 16001KT 20/17 A3025 RMK A01 T01990168  RH  084%=      5-min Rain = 0
KBWS 100840Z 18001KT 20/17 A3025 RMK A01 T01990168  RH  084%=      5-min Rain = 0
KBWS 100845Z 17002KT 20/17 A3025 RMK A01 T02000168  RH  084%=      5-min Rain = 0
KBWS 100850Z 17003KT 20/17 A3025 RMK A01 T02010168  RH  083%=      5-min Rain = 0
KBWS 100855Z 17004KT 20/17 A3025 RMK A01 T02020169  RH  083%=      5-min Rain = 0
KBWS 100900Z 16003KT 20/17 A3025 RMK A01 T02020168  RH  083%=      5-min Rain = 0
KBWS 100905Z 15002KT 20/17 A3025 RMK A01 T02020169  RH  084%=      5-min Rain = 0
KBWS 100910Z 15003KT 20/17 A3025 RMK A01 T02020170  RH  084%=      5-min Rain = 0
KBWS 100915Z 15003KT 20/17 A3025 RMK A01 T02010171  RH  085%=      5-min Rain = 0
KBWS 100920Z 17003KT 20/17 A3025 RMK A01 T02010171  RH  085%=      5-min Rain = 0
KBWS 100925Z 18002KT 20/17 A3025 RMK A01 T02010171  RH  084%=      5-min Rain = 0
KBWS 100930Z 17002KT 20/17 A3025 RMK A01 T02020170  RH  084%=      5-min Rain = 0
KBWS 100935Z 16002KT 20/17 A3025 RMK A01 T02030170  RH  084%=      5-min Rain = 0
KBWS 100940Z 16001KT 20/17 A3025 RMK A01 T02030170  RH  083%=      5-min Rain = 0
KBWS 100945Z 00000KT 20/17 A3025 RMK A01 T02030171  RH  084%=      5-min Rain = 0
KBWS 100950Z 00000KT 20/17 A3025 RMK A01 T02030171  RH  083%=      5-min Rain = 0
KBWS 100955Z 35001KT 20/17 A3025 RMK A01 T02040171  RH  083%=      5-min Rain = 0
KBWS 101000Z 35002KT 20/17 A3025 RMK A01 T02040171  RH  083%=      5-min Rain = 0
KBWS 101005Z 36003KT 20/17 A3025 RMK A01 T02030171  RH  084%=      5-min Rain = 0
KBWS 101010Z 35004KT 20/17 A3025 RMK A01 T02030172  RH  084%=      5-min Rain = 0
KBWS 101015Z 36004KT 20/17 A3025 RMK A01 T02040172  RH  084%=      5-min Rain = 0
KBWS 101020Z 00002KT 20/17 A3025 RMK A01 T02040172  RH  084%=      5-min Rain = 0
KBWS 101025Z 02002KT 20/17 A3025 RMK A01 T02040172  RH  084%=      5-min Rain = 0
KBWS 101030Z 05003KT 21/17 A3025 RMK A01 T02050174  RH  084%=      5-min Rain = 0
KBWS 101035Z 04004KT 21/17 A3025 RMK A01 T02050174  RH  084%=      5-min Rain = 0
KBWS 101040Z 04004KT 20/17 A3025 RMK A01 T02030172  RH  085%=      5-min Rain = 0
KBWS 101045Z 04004KT 20/17 A3025 RMK A01 T02010171  RH  085%=      5-min Rain = 0
KBWS 101050Z 05002KT 20/17 A3025 RMK A01 T02010172  RH  086%=      5-min Rain = 0
KBWS 101055Z 09002KT 20/17 A3025 RMK A01 T02010172  RH  086%=      5-min Rain = 0
KBWS 101100Z 09002KT 20/17 A3025 RMK A01 T01980171  RH  086%=      5-min Rain = 0
KBWS 101105Z 09001KT 20/17 A3025 RMK A01 T01970171  RH  087%=      5-min Rain = 0
KBWS 101110Z 09002KT 20/17 A3026 RMK A01 T01960171  RH  087%=      5-min Rain = 0
KBWS 101115Z 08001KT 20/17 A3026 RMK A01 T01950170  RH  088%=      5-min Rain = 0
KBWS 101120Z 08001KT 19/17 A3026 RMK A01 T01940169  RH  088%=      5-min Rain = 0
KBWS 101125Z 09001KT 19/17 A3026 RMK A01 T01940170  RH  088%=      5-min Rain = 0
KBWS 101130Z 07002KT 19/17 A3026 RMK A01 T01940170  RH  088%=      5-min Rain = 0
KBWS 101135Z 05001KT 19/17 A3026 RMK A01 T01940170  RH  088%=      5-min Rain = 0
KBWS 101140Z 06001KT 20/17 A3026 RMK A01 T01950170  RH  087%=      5-min Rain = 0
KBWS 101145Z 08002KT 20/17 A3026 RMK A01 T01950170  RH  087%=      5-min Rain = 0
KBWS 101150Z 09001KT 20/17 A3026 RMK A01 T01950170  RH  087%=      5-min Rain = 0
KBWS 101155Z 09001KT 20/17 A3026 RMK A01 T01950169  RH  087%=      5-min Rain = 0
KBWS 101200Z 09002KT 20/17 A3026 RMK A01 T01950169  RH  087%=      5-min Rain = 0
KBWS 101205Z 11002KT 20/17 A3026 RMK A01 T01950170  RH  087%=      5-min Rain = 0
KBWS 101210Z 12002KT 20/17 A3027 RMK A01 T01950170  RH  087%=      5-min Rain = 0
KBWS 101215Z 10001KT 20/17 A3027 RMK A01 T01970171  RH  087%=      5-min Rain = 0
KBWS 101220Z 08001KT 20/17 A3027 RMK A01 T01990172  RH  086%=      5-min Rain = 0
KBWS 101225Z 08001KT 20/17 A3027 RMK A01 T02020174  RH  086%=      5-min Rain = 0
KBWS 101230Z 08001KT 21/18 A3027 RMK A01 T02060175  RH  085%=      5-min Rain = 0
KBWS 101235Z 10001KT 21/18 A3027 RMK A01 T02130176  RH  082%=      5-min Rain = 0
KBWS 101240Z 09001KT 21/17 A3027 RMK A01 T02130174  RH  081%=      5-min Rain = 0
KBWS 101245Z 05001KT 21/18 A3027 RMK A01 T02130175  RH  081%=      5-min Rain = 0
KBWS 101250Z 05001KT 21/18 A3027 RMK A01 T02130175  RH  081%=      5-min Rain = 0
KBWS 101255Z 11000KT 22/18 A3027 RMK A01 T02160177  RH  080%=      5-min Rain = 0
KBWS 101300Z 14001KT 22/18 A3027 RMK A01 T02170176  RH  080%=      5-min Rain = 0
KBWS 101305Z 16002KT 22/18 A3027 RMK A01 T02190178  RH  080%=      5-min Rain = 0
KBWS 101310Z 16002KT 22/18 A3027 RMK A01 T02210178  RH  079%=      5-min Rain = 0
KBWS 101315Z 15001KT 22/18 A3027 RMK A01 T02240177  RH  077%=      5-min Rain = 0
KBWS 101320Z 16001KT 23/18 A3027 RMK A01 T02280177  RH  075%=      5-min Rain = 0
KBWS 101325Z 17002KT 23/18 A3027 RMK A01 T02290176  RH  074%=      5-min Rain = 0
KBWS 101330Z 15002KT 23/18 A3027 RMK A01 T02310176  RH  073%=      5-min Rain = 0
KBWS 101335Z 17003KT 23/18 A3027 RMK A01 T02300176  RH  073%=      5-min Rain = 0
KBWS 101340Z 17003KT 23/18 A3028 RMK A01 T02290176  RH  074%=      5-min Rain = 0
KBWS 101345Z 18003KT 23/18 A3028 RMK A01 T02320176  RH  072%=      5-min Rain = 0
KBWS 101350Z 19003KT 23/18 A3028 RMK A01 T02340176  RH  072%=      5-min Rain = 0
KBWS 101355Z 17002KT 23/18 A3028 RMK A01 T02340176  RH  072%=      5-min Rain = 0
KBWS 101400Z 18002KT 24/18 A3028 RMK A01 T02390177  RH  070%=      5-min Rain = 0
KBWS 101405Z 18002KT 24/18 A3028 RMK A01 T02410177  RH  069%=      5-min Rain = 0
KBWS 101410Z 20002KT 24/18 A3028 RMK A01 T02360176  RH  071%=      5-min Rain = 0
KBWS 101415Z 18002KT 24/18 A3028 RMK A01 T02380177  RH  070%=      5-min Rain = 0
KBWS 101420Z 16002KT 24/18 A3029 RMK A01 T02420177  RH  068%=      5-min Rain = 0
KBWS 101425Z 15003KT 24/18 A3029 RMK A01 T02440175  RH  067%=      5-min Rain = 0
KBWS 101430Z 15003KT 25/17 A3029 RMK A01 T02460174  RH  066%=      5-min Rain = 0
KBWS 101435Z 14003KT 25/18 A3029 RMK A01 T02490175  RH  065%=      5-min Rain = 0
KBWS 101440Z 15004KT 25/17 A3029 RMK A01 T02500172  RH  063%=      5-min Rain = 0
KBWS 101445Z 15003KT 24/17 A3029 RMK A01 T02440172  RH  066%=      5-min Rain = 0
KBWS 101450Z 16003KT 24/17 A3029 RMK A01 T02440173  RH  066%=      5-min Rain = 0
KBWS 101455Z 17004KT 24/17 A3029 RMK A01 T02440173  RH  066%=      5-min Rain = 0
KBWS 101500Z 18004KT 25/18 A3029 RMK A01 T02490175  RH  065%=      5-min Rain = 0
KBWS 101505Z 17004KT 25/17 A3028 RMK A01 T02510174  RH  064%=      5-min Rain = 0
KBWS 101510Z 22004KT 25/17 A3028 RMK A01 T02460173  RH  065%=      5-min Rain = 0
KBWS 101515Z 21003KT 25/17 A3028 RMK A01 T02460172  RH  065%=      5-min Rain = 0
KBWS 101520Z 22003KT 25/17 A3028 RMK A01 T02450173  RH  066%=      5-min Rain = 0
KBWS 101525Z 20003KT 25/17 A3028 RMK A01 T02470174  RH  065%=      5-min Rain = 0
KBWS 101530Z 17004KT 25/17 A3028 RMK A01 T02470174  RH  065%=      5-min Rain = 0
KBWS 101535Z 15006KT 25/18 A3028 RMK A01 T02460175  RH  066%=      5-min Rain = 0
KBWS 101540Z 17006KT 25/18 A3028 RMK A01 T02470177  RH  067%=      5-min Rain = 0
KBWS 101545Z 18006KT 25/18 A3028 RMK A01 T02470176  RH  066%=      5-min Rain = 0
KBWS 101550Z 16006KT 25/18 A3028 RMK A01 T02470175  RH  066%=      5-min Rain = 0
KBWS 101555Z 17008KT 25/18 A3028 RMK A01 T02490175  RH  065%=      5-min Rain = 0
KBWS 101600Z 19005KT 25/17 A3028 RMK A01 T02500173  RH  064%=      5-min Rain = 0
KBWS 101605Z 20006KT 25/17 A3028 RMK A01 T02520174  RH  063%=      5-min Rain = 0
KBWS 101610Z 18005KT 25/17 A3028 RMK A01 T02520173  RH  063%=      5-min Rain = 0
KBWS 101615Z 16006KT 25/18 A3028 RMK A01 T02510175  RH  064%=      5-min Rain = 0
KBWS 101620Z 14004KT 25/18 A3028 RMK A01 T02500175  RH  065%=      5-min Rain = 0
KBWS 101625Z 20004KT 26/18 A3028 RMK A01 T02550175  RH  063%=      5-min Rain = 0
KBWS 101630Z 22004KT 26/18 A3027 RMK A01 T02620175  RH  060%=      5-min Rain = 0
KBWS 101635Z 20005KT 26/17 A3027 RMK A01 T02630172  RH  058%=      5-min Rain = 0
KBWS 101640Z 21004KT 26/17 A3027 RMK A01 T02590170  RH  059%=      5-min Rain = 0
KBWS 101645Z 18007KT 26/17 A3027 RMK A01 T02580170  RH  060%=      5-min Rain = 0
KBWS 101650Z 18006KT 26/17 A3027 RMK A01 T02590171  RH  060%=      5-min Rain = 0
KBWS 101655Z 17008KT 26/17 A3027 RMK A01 T02610171  RH  059%=      5-min Rain = 0
KBWS 101700Z 18007KT 26/17 A3027 RMK A01 T02610172  RH  059%=      5-min Rain = 0
KBWS 101705Z 19006KT 27/17 A3027 RMK A01 T02650172  RH  058%=      5-min Rain = 0
KBWS 101710Z 19006KT 26/17 A3027 RMK A01 T02600170  RH  059%=      5-min Rain = 0
KBWS 101715Z 17009KT 27/17 A3027 RMK A01 T02650172  RH  058%=      5-min Rain = 0
KBWS 101720Z 16008KT 26/17 A3026 RMK A01 T02620170  RH  059%=      5-min Rain = 0
KBWS 101725Z 15006KT 26/17 A3026 RMK A01 T02600170  RH  059%=      5-min Rain = 0
KBWS 101730Z 19005KT 26/17 A3026 RMK A01 T02610169  RH  058%=      5-min Rain = 0
KBWS 101735Z 17006KT 26/17 A3026 RMK A01 T02600169  RH  059%=      5-min Rain = 0
KBWS 101740Z 17007KT 26/17 A3026 RMK A01 T02590167  RH  058%=      5-min Rain = 0
KBWS 101745Z 16005KT 26/17 A3025 RMK A01 T02580166  RH  058%=      5-min Rain = 0
KBWS 101750Z 16003KT 26/17 A3025 RMK A01 T02590166  RH  058%=      5-min Rain = 0
KBWS 101755Z 14004KT 26/17 A3025 RMK A01 T02610166  RH  057%=      5-min Rain = 0
KBWS 101800Z 16005KT 26/16 A3025 RMK A01 T02620161  RH  055%=      5-min Rain = 0
KBWS 101805Z 18004KT 27/16 A3025 RMK A01 T02650157  RH  053%=      5-min Rain = 0
KBWS 101810Z 14003KT 27/16 A3025 RMK A01 T02700161  RH  053%=      5-min Rain = 0
KBWS 101815Z 07001KT 28/16 A3025 RMK A01 T02790162  RH  050%=      5-min Rain = 0
KBWS 101820Z 06003KT 28/16 A3024 RMK A01 T02790163  RH  050%=      5-min Rain = 0
KBWS 101825Z 08005KT 28/16 A3024 RMK A01 T02750163  RH  052%=      5-min Rain = 0
KBWS 101830Z 14004G9KT 27/16 A3024 RMK A01 T02720163  RH  052%=      5-min Rain = 0
KBWS 101835Z 17007KT 28/17 A3024 RMK A01 T02760165  RH  052%=      5-min Rain = 0
KBWS 101840Z 17004G9KT 28/17 A3024 RMK A01 T02750166  RH  053%=      5-min Rain = 0
KBWS 101845Z 13004KT 28/17 A3023 RMK A01 T02810167  RH  051%=      5-min Rain = 0
KBWS 101850Z 11004KT 28/17 A3023 RMK A01 T02830168  RH  051%=      5-min Rain = 0
KBWS 101855Z 16006KT 28/17 A3023 RMK A01 T02820166  RH  051%=      5-min Rain = 0
KBWS 101900Z 18004G9KT 29/17 A3023 RMK A01 T02850166  RH  050%=      5-min Rain = 0
KBWS 101905Z 17007KT 29/16 A3022 RMK A01 T02870163  RH  048%=      5-min Rain = 0
KBWS 101910Z 19003KT 29/16 A3022 RMK A01 T02890163  RH  048%=      5-min Rain = 0
KBWS 101915Z 12005KT 29/16 A3022 RMK A01 T02850161  RH  048%=      5-min Rain = 0
KBWS 101920Z 14005G10KT 29/16 A3021 RMK A01 T02870160  RH  047%=      5-min Rain = 0
KBWS 101925Z 16007G12KT 29/16 A3021 RMK A01 T02910156  RH  045%=      5-min Rain = 0
KBWS 101930Z 16004G10KT 29/16 A3021 RMK A01 T02910156  RH  045%=      5-min Rain = 0
KBWS 101935Z 17007KT 30/16 A302 RMK A01 T02970158  RH  044%=      5-min Rain = 0
KBWS 101940Z 13005KT 29/16 A302 RMK A01 T02900156  RH  045%=      5-min Rain = 0
KBWS 101945Z 16004G11KT 29/16 A302 RMK A01 T02850156  RH  047%=      5-min Rain = 0
KBWS 101950Z 17006G12KT 30/15 A302 RMK A01 T02950153  RH  043%=      5-min Rain = 0
KBWS 101955Z 17010G16KT 30/16 A3019 RMK A01 T03030155  RH  042%=      5-min Rain = 0
KBWS 102000Z 13007KT 30/15 A3019 RMK A01 T02980154  RH  043%=      5-min Rain = 0
KBWS 102005Z 17008G13KT 30/15 A3019 RMK A01 T02960154  RH  043%=      5-min Rain = 0
KBWS 102010Z 18007G12KT 30/15 A3019 RMK A01 T03010152  RH  042%=      5-min Rain = 0
KBWS 102015Z 18008G13KT 30/15 A3018 RMK A01 T03030150  RH  040%=      5-min Rain = 0
KBWS 102020Z 18010G16KT 30/15 A3018 RMK A01 T03040150  RH  040%=      5-min Rain = 0
KBWS 102025Z 19010KT 31/15 A3018 RMK A01 T03080149  RH  039%=      5-min Rain = 0
KBWS 102030Z 17007G14KT 30/15 A3018 RMK A01 T03020146  RH  040%=      5-min Rain = 0
KBWS 102035Z 18007KT 31/15 A3017 RMK A01 T03080149  RH  039%=      5-min Rain = 0
KBWS 102040Z 16009KT 30/15 A3017 RMK A01 T03040145  RH  039%=      5-min Rain = 0
KBWS 102045Z 19009G14KT 31/14 A3017 RMK A01 T03100143  RH  037%=      5-min Rain = 0
KBWS 102050Z 15007KT 31/14 A3017 RMK A01 T03080144  RH  038%=      5-min Rain = 0
KBWS 102055Z 16006G11KT 31/15 A3017 RMK A01 T03050146  RH  039%=      5-min Rain = 0
KBWS 102100Z 16009G14KT 31/14 A3016 RMK A01 T03120144  RH  037%=      5-min Rain = 0
KBWS 102105Z 17009G15KT 31/14 A3016 RMK A01 T03100142  RH  037%=      5-min Rain = 0
KBWS 102110Z 18009G14KT 31/14 A3016 RMK A01 T03100143  RH  037%=      5-min Rain = 0
KBWS 102115Z 16008G14KT 31/15 A3016 RMK A01 T03120146  RH  037%=      5-min Rain = 0
KBWS 102120Z 17010G16KT 31/14 A3016 RMK A01 T03080141  RH  037%=      5-min Rain = 0
KBWS 102125Z 16006KT 30/14 A3015 RMK A01 T03040140  RH  037%=      5-min Rain = 0
KBWS 102130Z 16011G17KT 31/14 A3015 RMK A01 T03050141  RH  038%=      5-min Rain = 0
KBWS 102135Z 15010G18KT 31/14 A3015 RMK A01 T03090142  RH  037%=      5-min Rain = 0
KBWS 102140Z 14011G18KT 31/14 A3015 RMK A01 T03100140  RH  036%=      5-min Rain = 0
KBWS 102145Z 14012KT 31/14 A3015 RMK A01 T03080139  RH  036%=      5-min Rain = 0
KBWS 102150Z 16012G17KT 30/14 A3014 RMK A01 T03040139  RH  037%=      5-min Rain = 0
KBWS 102155Z 15009G14KT 31/14 A3014 RMK A01 T03070138  RH  036%=      5-min Rain = 0
KBWS 102200Z 17009G14KT 31/14 A3014 RMK A01 T03110138  RH  036%=      5-min Rain = 0
KBWS 102205Z 17011KT 31/14 A3014 RMK A01 T03140139  RH  035%=      5-min Rain = 0
KBWS 102210Z 16008G15KT 31/14 A3014 RMK A01 T03090135  RH  035%=      5-min Rain = 0
KBWS 102215Z 18007KT 31/14 A3014 RMK A01 T03130139  RH  035%=      5-min Rain = 0
KBWS 102220Z 18010KT 31/14 A3013 RMK A01 T03140142  RH  036%=      5-min Rain = 0
KBWS 102225Z 16012KT 32/14 A3013 RMK A01 T03170141  RH  035%=      5-min Rain = 0
KBWS 102230Z 15010KT 31/14 A3013 RMK A01 T03100138  RH  036%=      5-min Rain = 0
KBWS 102235Z 18008KT 31/14 A3013 RMK A01 T03120140  RH  036%=      5-min Rain = 0
KBWS 102240Z 19010KT 32/14 A3013 RMK A01 T03160143  RH  036%=      5-min Rain = 0
KBWS 102245Z 18012KT 31/14 A3012 RMK A01 T03120142  RH  036%=      5-min Rain = 0
KBWS 102250Z 17010G15KT 31/14 A3012 RMK A01 T03100141  RH  037%=      5-min Rain = 0
KBWS 102255Z 16008G13KT 31/14 A3012 RMK A01 T03120138  RH  035%=      5-min Rain = 0
KBWS 102300Z 18008KT 31/15 A3012 RMK A01 T03130147  RH  037%=      5-min Rain = 0
KBWS 102305Z 16012KT 32/15 A3012 RMK A01 T03160148  RH  037%=      5-min Rain = 0
KBWS 102310Z 14012KT 31/14 A3012 RMK A01 T03060144  RH  038%=      5-min Rain = 0
KBWS 102315Z 16014G19KT 30/15 A3012 RMK A01 T03020148  RH  040%=      5-min Rain = 0
KBWS 102320Z 15014G19KT 30/15 A3012 RMK A01 T02980149  RH  041%=      5-min Rain = 0
KBWS 102325Z 16014KT 30/15 A3012 RMK A01 T02950147  RH  041%=      5-min Rain = 0
KBWS 102330Z 16013KT 30/14 A3012 RMK A01 T02960144  RH  040%=      5-min Rain = 0
KBWS 102335Z 16014KT 30/14 A3011 RMK A01 T02970143  RH  040%=      5-min Rain = 0
KBWS 102340Z 18012KT 30/14 A3011 RMK A01 T02980144  RH  040%=      5-min Rain = 0
KBWS 102345Z 19014G21KT 30/14 A3011 RMK A01 T03010144  RH  039%=      5-min Rain = 0
KBWS 102350Z 18013KT 31/14 A3011 RMK A01 T03050143  RH  038%=      5-min Rain = 0
KBWS 102355Z 19012G17KT 31/14 A3011 RMK A01 T03080142  RH  037%=      5-min Rain = 0
KBWS 110000Z 18014KT 31/14 A301 RMK A01 T03060143  RH  038%=      5-min Rain = 0
KBWS 110005Z 19012G17KT 31/14 A301 RMK A01 T03060142  RH  038%=      5-min Rain = 0
KBWS 110010Z 19013G18KT 31/14 A3011 RMK A01 T03080142  RH  037%=      5-min Rain = 0
KBWS 110015Z 18014KT 30/14 A3011 RMK A01 T03040140  RH  038%=      5-min Rain = 0
KBWS 110020Z 20011G16KT 30/14 A301 RMK A01 T03030140  RH  038%=      5-min Rain = 0
KBWS 110025Z 20011G16KT 30/14 A3011 RMK A01 T03030143  RH  038%=      5-min Rain = 0
KBWS 110030Z 18013G19KT 30/15 A3011 RMK A01 T03040146  RH  039%=      5-min Rain = 0
KBWS 110035Z 16019KT 30/16 A3011 RMK A01 T02960155  RH  043%=      5-min Rain = 0
KBWS 110040Z 17018KT 28/17 A3011 RMK A01 T02790174  RH  054%=      5-min Rain = 0
KBWS 110045Z 18016KT 27/18 A3012 RMK A01 T02680179  RH  060%=      5-min Rain = 0
KBWS 110050Z 18015KT 27/17 A3012 RMK A01 T02690173  RH  057%=      5-min Rain = 0
KBWS 110055Z 19014G19KT 27/17 A3012 RMK A01 T02720167  RH  054%=      5-min Rain = 0
KBWS 110100Z 19013G18KT 27/16 A3012 RMK A01 T02740164  RH  052%=      5-min Rain = 0
KBWS 110105Z 19012KT 28/16 A3012 RMK A01 T02780159  RH  049%=      5-min Rain = 0
KBWS 110110Z 18011KT 28/16 A3012 RMK A01 T02810157  RH  048%=      5-min Rain = 0
KBWS 110115Z 17011KT 28/16 A3012 RMK A01 T02820156  RH  047%=      5-min Rain = 0
KBWS 110120Z 17011KT 28/16 A3012 RMK A01 T02810155  RH  047%=      5-min Rain = 0
KBWS 110125Z 17011KT 28/16 A3012 RMK A01 T02800156  RH  048%=      5-min Rain = 0
KBWS 110130Z 17010KT 28/16 A3012 RMK A01 T02790156  RH  048%=      5-min Rain = 0
KBWS 110135Z 17011KT 28/16 A3012 RMK A01 T02790156  RH  048%=      5-min Rain = 0
KBWS 110140Z 17011KT 28/16 A3012 RMK A01 T02790155  RH  048%=      5-min Rain = 0
KBWS 110145Z 17011KT 28/15 A3012 RMK A01 T02800153  RH  047%=      5-min Rain = 0
KBWS 110150Z 17012KT 28/15 A3012 RMK A01 T02810150  RH  046%=      5-min Rain = 0
KBWS 110155Z 17011KT 28/15 A3013 RMK A01 T02800150  RH  046%=      5-min Rain = 0
KBWS 110200Z 17011KT 28/15 A3013 RMK A01 T02800151  RH  046%=      5-min Rain = 0
KBWS 110205Z 17010KT 28/15 A3013 RMK A01 T02780152  RH  047%=      5-min Rain = 0
KBWS 110210Z 17010KT 28/15 A3013 RMK A01 T02770152  RH  047%=      5-min Rain = 0
KBWS 110215Z 17009KT 28/15 A3013 RMK A01 T02760152  RH  048%=      5-min Rain = 0
KBWS 110220Z 17009KT 28/15 A3013 RMK A01 T02750152  RH  048%=      5-min Rain = 0
KBWS 110225Z 16007KT 27/15 A3013 RMK A01 T02740152  RH  048%=      5-min Rain = 0
KBWS 110230Z 16007KT 27/15 A3013 RMK A01 T02730152  RH  049%=      5-min Rain = 0
KBWS 110235Z 16008KT 27/15 A3013 RMK A01 T02720151  RH  049%=      5-min Rain = 0
KBWS 110240Z 15008KT 27/15 A3013 RMK A01 T02710151  RH  049%=      5-min Rain = 0
KBWS 110245Z 16009KT 27/15 A3013 RMK A01 T02710151  RH  049%=      5-min Rain = 0
KBWS 110250Z 15008KT 27/15 A3013 RMK A01 T02690152  RH  050%=      5-min Rain = 0
KBWS 110255Z 15007KT 27/15 A3013 RMK A01 T02670153  RH  051%=      5-min Rain = 0
KBWS 110300Z 15007KT 27/15 A3013 RMK A01 T02660153  RH  051%=      5-min Rain = 0
KBWS 110305Z 15007KT 26/15 A3013 RMK A01 T02640153  RH  052%=      5-min Rain = 0
KBWS 110310Z 15007KT 26/15 A3014 RMK A01 T02620153  RH  052%=      5-min Rain = 0
KBWS 110315Z 15007KT 26/15 A3014 RMK A01 T02620153  RH  052%=      5-min Rain = 0
KBWS 110320Z 15008KT 26/15 A3014 RMK A01 T02620153  RH  052%=      5-min Rain = 0
KBWS 110325Z 16007KT 26/15 A3014 RMK A01 T02600153  RH  053%=      5-min Rain = 0
KBWS 110330Z 18008KT 26/16 A3014 RMK A01 T02600155  RH  054%=      5-min Rain = 0
KBWS 110335Z 19010KT 26/16 A3015 RMK A01 T02590160  RH  056%=      5-min Rain = 0
KBWS 110340Z 20008KT 25/16 A3015 RMK A01 T02540164  RH  059%=      5-min Rain = 0
KBWS 110345Z 21009KT 25/16 A3015 RMK A01 T02500163  RH  060%=      5-min Rain = 0
KBWS 110350Z 21009KT 25/16 A3015 RMK A01 T02480161  RH  060%=      5-min Rain = 0
KBWS 110355Z 20007KT 25/16 A3015 RMK A01 T02460160  RH  060%=      5-min Rain = 0
KBWS 110400Z 20006KT 25/16 A3016 RMK A01 T02450160  RH  060%=      5-min Rain = 0
KBWS 110405Z 20005KT 24/16 A3016 RMK A01 T02440160  RH  061%=      5-min Rain = 0
KBWS 110410Z 20005KT 24/16 A3016 RMK A01 T02420160  RH  061%=      5-min Rain = 0
KBWS 110415Z 20005KT 24/16 A3016 RMK A01 T02420160  RH  062%=      5-min Rain = 0
KBWS 110420Z 20005KT 24/16 A3015 RMK A01 T02410160  RH  062%=      5-min Rain = 0
KBWS 110425Z 19005KT 24/16 A3015 RMK A01 T02390160  RH  063%=      5-min Rain = 0
KBWS 110430Z 19006KT 24/16 A3015 RMK A01 T02390159  RH  063%=      5-min Rain = 0
KBWS 110435Z 19006KT 24/16 A3015 RMK A01 T02390159  RH  062%=      5-min Rain = 0
KBWS 110440Z 18006KT 24/16 A3015 RMK A01 T02400158  RH  061%=      5-min Rain = 0
KBWS 110445Z 18006KT 24/16 A3015 RMK A01 T02410157  RH  061%=      5-min Rain = 0
KBWS 110450Z 18006KT 24/16 A3015 RMK A01 T02410157  RH  061%=      5-min Rain = 0
KBWS 110455Z 18006KT 24/16 A3015 RMK A01 T02400157  RH  061%=      5-min Rain = 0

Page generated in 0.03 seconds.